createdAt,value
2019-03-22T00:00:44.477Z,465.20
2019-03-22T00:01:44.496Z,310.60
2019-03-22T00:02:44.439Z,272.40
2019-03-22T00:03:44.434Z,237.90
2019-03-22T00:04:44.426Z,357.80
2019-03-22T00:05:44.407Z,231.50
2019-03-22T00:06:44.401Z,149.20
2019-03-22T00:07:44.392Z,208.60
2019-03-22T00:08:44.376Z,297.20
2019-03-22T00:09:44.376Z,300.40
2019-03-22T00:10:44.348Z,256.30
2019-03-22T00:11:44.468Z,207.80
2019-03-22T00:12:44.325Z,405.70
2019-03-22T00:13:44.323Z,137.10
2019-03-22T00:14:44.305Z,184.30
2019-03-22T00:15:44.293Z,421.80
2019-03-22T00:16:44.282Z,239.60
2019-03-22T00:17:44.281Z,314.90
2019-03-22T00:18:44.258Z,421.30
2019-03-22T00:19:44.253Z,501.60
2019-03-22T00:20:44.240Z,607.20
2019-03-22T00:21:44.231Z,971.30
2019-03-22T00:22:44.219Z,1228.80
2019-03-22T00:23:44.218Z,727.60
2019-03-22T00:24:44.221Z,299.50
2019-03-22T00:25:44.184Z,534.20
2019-03-22T00:26:44.179Z,741.90
2019-03-22T00:27:44.159Z,686.80
2019-03-22T00:28:44.196Z,459.20
2019-03-22T00:29:44.143Z,526.20
2019-03-22T00:30:44.136Z,463.40
2019-03-22T00:31:44.119Z,353.10
2019-03-22T00:32:44.105Z,681.80
2019-03-22T00:33:44.099Z,457.10
2019-03-22T00:34:44.113Z,387.20
2019-03-22T00:35:44.077Z,441.60
2019-03-22T00:36:44.061Z,349.60
2019-03-22T00:37:44.050Z,268.90
2019-03-22T00:38:44.045Z,254.50
2019-03-22T00:39:44.039Z,327.60
2019-03-22T00:40:44.018Z,364.20
2019-03-22T00:41:44.007Z,313.90
2019-03-22T00:42:44.011Z,259.40
2019-03-22T00:43:43.988Z,289.80
2019-03-22T00:44:43.983Z,289.30
2019-03-22T00:45:43.968Z,289.90
2019-03-22T00:46:43.957Z,249.20
2019-03-22T00:47:43.968Z,269.70
2019-03-22T00:48:43.935Z,208.80
2019-03-22T00:49:43.929Z,274.60
2019-03-22T00:50:43.913Z,250.00
2019-03-22T00:51:43.905Z,244.40
2019-03-22T00:52:43.887Z,198.90
2019-03-22T00:53:43.888Z,203.30
2019-03-22T00:54:43.872Z,179.20
2019-03-22T00:55:43.865Z,197.50
2019-03-22T00:56:43.855Z,202.40
2019-03-22T00:57:43.835Z,208.80
2019-03-22T00:58:43.835Z,222.90
2019-03-22T00:59:43.817Z,164.60
2019-03-22T01:00:43.859Z,179.80
2019-03-22T01:01:43.794Z,236.00
2019-03-22T01:02:43.777Z,256.90
2019-03-22T01:03:43.772Z,235.10
2019-03-22T01:04:43.763Z,169.60
2019-03-22T01:05:43.754Z,184.70
2019-03-22T01:06:43.751Z,211.80
2019-03-22T01:07:43.732Z,191.40
2019-03-22T01:08:43.718Z,255.10
2019-03-22T01:09:43.702Z,232.00
2019-03-22T01:10:43.712Z,254.60
2019-03-22T01:11:43.697Z,234.90
2019-03-22T01:12:43.669Z,210.60
2019-03-22T01:13:43.656Z,242.70
2019-03-22T01:14:43.648Z,199.50
2019-03-22T01:15:43.636Z,206.90
2019-03-22T01:16:43.642Z,232.80
2019-03-22T01:17:43.618Z,237.90
2019-03-22T01:18:43.602Z,233.00
2019-03-22T01:19:43.596Z,208.00
2019-03-22T01:20:43.585Z,210.50
2019-03-22T01:21:43.610Z,215.20
2019-03-22T01:22:43.570Z,187.80
2019-03-22T01:23:43.557Z,231.90
2019-03-22T01:24:43.542Z,140.50
2019-03-22T01:25:43.528Z,189.00
2019-03-22T01:26:43.517Z,193.80
2019-03-22T01:27:43.524Z,202.40
2019-03-22T01:28:43.506Z,208.70
2019-03-22T01:29:43.482Z,222.60
2019-03-22T01:30:43.472Z,211.50
2019-03-22T01:31:43.479Z,205.80
2019-03-22T01:32:43.459Z,186.50
2019-03-22T01:33:43.439Z,188.10
2019-03-22T01:34:43.433Z,179.70
2019-03-22T01:35:43.423Z,169.50
2019-03-22T01:36:43.430Z,150.70
2019-03-22T01:37:43.412Z,160.50
2019-03-22T01:38:43.406Z,149.00
2019-03-22T01:39:43.377Z,144.30
2019-03-22T01:40:43.382Z,141.40
2019-03-22T01:41:43.350Z,166.30
2019-03-22T01:42:43.339Z,161.20
2019-03-22T01:43:43.451Z,151.70
2019-03-22T01:44:43.322Z,145.60
2019-03-22T01:45:43.315Z,156.30
2019-03-22T01:46:43.303Z,186.20
2019-03-22T01:47:43.290Z,170.90
2019-03-22T01:48:43.279Z,174.00
2019-03-22T01:49:43.281Z,152.10
2019-03-22T01:50:43.257Z,117.40
2019-03-22T01:51:43.251Z,115.50
2019-03-22T01:52:43.232Z,126.70
2019-03-22T01:53:43.215Z,124.50
2019-03-22T01:54:43.213Z,141.60
2019-03-22T01:55:43.196Z,141.00
2019-03-22T01:56:43.191Z,142.00
2019-03-22T01:57:52.416Z,139.80
2019-03-22T01:58:44.156Z,99.10
2019-03-22T01:59:43.205Z,117.60
2019-03-22T02:00:43.143Z,125.60
2019-03-22T02:01:43.131Z,96.50
2019-03-22T02:02:43.120Z,121.10
2019-03-22T02:03:43.101Z,113.60
2019-03-22T02:04:43.091Z,126.40
2019-03-22T02:05:43.193Z,135.40
2019-03-22T02:06:43.070Z,146.30
2019-03-22T02:07:43.069Z,143.80
2019-03-22T02:08:43.051Z,139.80
2019-03-22T02:09:43.038Z,155.20
2019-03-22T02:10:43.024Z,110.50
2019-03-22T02:11:43.025Z,147.20
2019-03-22T02:12:43.013Z,158.00
2019-03-22T02:13:42.994Z,105.40
2019-03-22T02:14:42.978Z,138.70
2019-03-22T02:15:42.971Z,136.90
2019-03-22T02:16:42.966Z,147.70
2019-03-22T02:17:42.951Z,139.70
2019-03-22T02:18:42.934Z,130.10
2019-03-22T02:19:42.943Z,117.00
2019-03-22T02:20:42.910Z,108.00
2019-03-22T02:21:42.933Z,127.80
2019-03-22T02:22:42.913Z,120.50
2019-03-22T02:23:42.882Z,117.90
2019-03-22T02:24:42.874Z,102.70
2019-03-22T02:25:42.856Z,124.00
2019-03-22T02:26:42.850Z,139.80
2019-03-22T02:27:42.845Z,120.20
2019-03-22T02:28:42.828Z,129.50
2019-03-22T02:29:44.480Z,129.40
2019-03-22T02:30:42.820Z,127.50
2019-03-22T02:31:42.799Z,107.30
2019-03-22T02:32:42.816Z,92.30
2019-03-22T02:33:42.770Z,102.20
2019-03-22T02:34:42.778Z,106.90
2019-03-22T02:35:42.768Z,105.80
2019-03-22T02:36:42.741Z,103.30
2019-03-22T02:37:42.723Z,99.70
2019-03-22T02:38:42.722Z,104.30
2019-03-22T02:39:42.805Z,74.80
2019-03-22T02:40:42.747Z,92.50
2019-03-22T02:41:42.687Z,92.80
2019-03-22T02:42:42.668Z,105.10
2019-03-22T02:43:42.678Z,118.40
2019-03-22T02:44:42.646Z,115.60
2019-03-22T02:45:42.643Z,80.40
2019-03-22T02:46:42.632Z,96.10
2019-03-22T02:47:42.657Z,80.20
2019-03-22T02:48:42.633Z,104.20
2019-03-22T02:49:42.590Z,99.90
2019-03-22T02:50:42.579Z,120.10
2019-03-22T02:51:42.570Z,117.00
2019-03-22T02:52:42.563Z,107.10
2019-03-22T02:53:42.561Z,109.80
2019-03-22T02:54:42.535Z,107.30
2019-03-22T02:55:42.562Z,156.40
2019-03-22T02:56:42.521Z,113.80
2019-03-22T02:57:42.515Z,118.00
2019-03-22T02:58:42.598Z,131.70
2019-03-22T02:59:42.485Z,136.70
2019-03-22T03:00:42.479Z,151.50
2019-03-22T03:01:42.464Z,136.60
2019-03-22T03:02:42.451Z,139.20
2019-03-22T03:03:42.438Z,130.90
2019-03-22T03:04:42.449Z,123.70
2019-03-22T03:05:42.422Z,120.70
2019-03-22T03:06:42.412Z,131.00
2019-03-22T03:07:42.390Z,98.30
2019-03-22T03:08:42.383Z,113.70
2019-03-22T03:09:42.373Z,95.10
2019-03-22T03:10:42.382Z,100.30
2019-03-22T03:11:42.377Z,104.30
2019-03-22T03:12:42.346Z,109.20
2019-03-22T03:13:42.331Z,89.80
2019-03-22T03:14:42.319Z,89.90
2019-03-22T03:15:42.317Z,93.70
2019-03-22T03:16:42.315Z,90.00
2019-03-22T03:17:42.291Z,92.60
2019-03-22T03:18:42.279Z,93.40
2019-03-22T03:19:42.261Z,87.30
2019-03-22T03:20:42.259Z,92.60
2019-03-22T03:21:42.253Z,88.00
2019-03-22T03:22:42.240Z,120.70
2019-03-22T03:23:42.219Z,124.00
2019-03-22T03:24:42.212Z,102.70
2019-03-22T03:25:42.231Z,104.60
2019-03-22T03:26:42.193Z,130.70
2019-03-22T03:27:42.182Z,113.30
2019-03-22T03:28:42.159Z,107.40
2019-03-22T03:29:42.153Z,99.00
2019-03-22T03:30:42.150Z,101.00
2019-03-22T03:31:42.128Z,112.10
2019-03-22T03:32:42.117Z,133.60
2019-03-22T03:33:42.106Z,108.00
2019-03-22T03:34:42.103Z,121.50
2019-03-22T03:35:42.087Z,100.90
2019-03-22T03:36:42.108Z,100.20
2019-03-22T03:37:42.067Z,99.70
2019-03-22T03:38:42.057Z,86.90
2019-03-22T03:39:42.043Z,95.50
2019-03-22T03:40:42.029Z,103.90
2019-03-22T03:41:42.030Z,101.50
2019-03-22T03:42:42.053Z,101.40
2019-03-22T03:43:42.001Z,106.40
2019-03-22T03:44:41.984Z,97.90
2019-03-22T03:45:41.990Z,103.60
2019-03-22T03:46:42.043Z,97.00
2019-03-22T03:47:41.971Z,93.90
2019-03-22T03:48:41.966Z,104.00
2019-03-22T03:49:41.930Z,92.50
2019-03-22T03:50:41.930Z,90.80
2019-03-22T03:51:41.926Z,97.30
2019-03-22T03:52:42.030Z,91.20
2019-03-22T03:53:41.898Z,89.30
2019-03-22T03:54:41.872Z,87.70
2019-03-22T03:55:41.869Z,92.60
2019-03-22T03:56:41.850Z,87.40
2019-03-22T03:57:41.980Z,99.80
2019-03-22T03:58:52.310Z,94.10
2019-03-22T03:59:42.981Z,89.70
2019-03-22T04:00:41.811Z,78.40
2019-03-22T04:01:41.936Z,77.70
2019-03-22T04:02:41.805Z,91.10
2019-03-22T04:03:41.819Z,99.70
2019-03-22T04:04:41.767Z,120.70
2019-03-22T04:05:41.762Z,94.60
2019-03-22T04:06:41.745Z,97.20
2019-03-22T04:07:41.733Z,93.50
2019-03-22T04:08:41.731Z,98.40
2019-03-22T04:09:41.718Z,102.90
2019-03-22T04:10:41.713Z,97.30
2019-03-22T04:11:41.693Z,101.70
2019-03-22T04:12:41.681Z,96.20
2019-03-22T04:13:41.670Z,96.30
2019-03-22T04:14:41.668Z,98.30
2019-03-22T04:15:41.647Z,101.80
2019-03-22T04:16:41.627Z,103.90
2019-03-22T04:17:41.628Z,104.30
2019-03-22T04:18:41.606Z,98.00
2019-03-22T04:19:41.608Z,99.60
2019-03-22T04:20:41.604Z,95.70
2019-03-22T04:21:41.573Z,99.90
2019-03-22T04:22:41.561Z,101.40
2019-03-22T04:23:41.569Z,106.20
2019-03-22T04:24:41.560Z,110.80
2019-03-22T04:25:41.538Z,105.00
2019-03-22T04:26:41.518Z,98.40
2019-03-22T04:27:41.516Z,100.90
2019-03-22T04:28:41.502Z,108.30
2019-03-22T04:29:41.490Z,102.40
2019-03-22T04:30:41.503Z,102.10
2019-03-22T04:31:41.473Z,101.30
2019-03-22T04:32:41.459Z,103.00
2019-03-22T04:33:41.495Z,101.10
2019-03-22T04:34:41.427Z,105.40
2019-03-22T04:35:41.467Z,100.00
2019-03-22T04:36:41.418Z,98.50
2019-03-22T04:37:41.399Z,105.00
2019-03-22T04:38:41.392Z,102.00
2019-03-22T04:39:41.382Z,105.60
2019-03-22T04:40:41.370Z,106.20
2019-03-22T04:41:41.424Z,105.70
2019-03-22T04:42:41.344Z,101.20
2019-03-22T04:43:41.333Z,101.10
2019-03-22T04:44:41.316Z,107.30
2019-03-22T04:45:41.315Z,109.50
2019-03-22T04:46:41.342Z,96.60
2019-03-22T04:47:41.283Z,100.40
2019-03-22T04:48:41.273Z,102.30
2019-03-22T04:49:41.264Z,102.70
2019-03-22T04:50:41.255Z,101.10
2019-03-22T04:51:41.245Z,101.00
2019-03-22T04:52:41.243Z,102.70
2019-03-22T04:53:41.228Z,106.70
2019-03-22T04:54:41.211Z,119.40
2019-03-22T04:55:41.201Z,105.80
2019-03-22T04:56:41.188Z,110.20
2019-03-22T04:57:41.180Z,111.20
2019-03-22T04:58:41.207Z,110.60
2019-03-22T04:59:41.164Z,106.70
2019-03-22T05:00:41.149Z,105.40
2019-03-22T05:01:41.128Z,110.10
2019-03-22T05:02:41.125Z,115.00
2019-03-22T05:03:41.121Z,121.70
2019-03-22T05:04:41.095Z,121.20
2019-03-22T05:05:41.085Z,111.40
2019-03-22T05:06:41.072Z,111.60
2019-03-22T05:07:41.074Z,117.80
2019-03-22T05:08:41.064Z,116.90
2019-03-22T05:09:41.056Z,119.40
2019-03-22T05:10:41.034Z,115.40
2019-03-22T05:11:41.016Z,113.70
2019-03-22T05:12:41.043Z,113.90
2019-03-22T05:13:40.993Z,116.60
2019-03-22T05:14:40.991Z,103.30
2019-03-22T05:15:40.972Z,114.00
2019-03-22T05:16:40.965Z,113.50
2019-03-22T05:17:40.951Z,119.50
2019-03-22T05:18:40.952Z,123.30
2019-03-22T05:19:40.929Z,117.00
2019-03-22T05:20:40.916Z,101.30
2019-03-22T05:21:40.910Z,107.10
2019-03-22T05:22:40.911Z,112.50
2019-03-22T05:23:40.925Z,108.10
2019-03-22T05:24:40.875Z,108.30
2019-03-22T05:25:40.867Z,117.70
2019-03-22T05:26:40.850Z,109.70
2019-03-22T05:27:40.844Z,117.00
2019-03-22T05:28:40.858Z,121.20
2019-03-22T05:29:40.828Z,106.60
2019-03-22T05:30:40.814Z,117.00
2019-03-22T05:31:40.793Z,126.60
2019-03-22T05:32:40.783Z,127.30
2019-03-22T05:33:40.778Z,122.60
2019-03-22T05:34:40.783Z,121.60
2019-03-22T05:35:40.755Z,129.90
2019-03-22T05:36:40.740Z,123.60
2019-03-22T05:37:40.732Z,118.70
2019-03-22T05:38:40.715Z,118.70
2019-03-22T05:39:40.749Z,120.70
2019-03-22T05:40:40.695Z,126.80
2019-03-22T05:41:40.691Z,122.50
2019-03-22T05:42:40.674Z,126.80
2019-03-22T05:43:40.669Z,114.30
2019-03-22T05:44:40.654Z,109.80
2019-03-22T05:45:40.644Z,106.80
2019-03-22T05:46:40.642Z,98.70
2019-03-22T05:47:40.616Z,119.30
2019-03-22T05:48:40.610Z,99.70
2019-03-22T05:49:40.593Z,98.70
2019-03-22T05:50:40.585Z,99.50
2019-03-22T05:51:40.586Z,105.80
2019-03-22T05:52:40.568Z,104.00
2019-03-22T05:53:40.556Z,112.10
2019-03-22T05:54:40.542Z,115.40
2019-03-22T05:55:40.569Z,113.70
2019-03-22T05:56:40.517Z,114.50
2019-03-22T05:57:40.510Z,115.90
2019-03-22T05:58:40.500Z,114.80
2019-03-22T05:59:42.849Z,122.70
2019-03-22T06:00:40.472Z,116.70
2019-03-22T06:01:40.464Z,124.00
2019-03-22T06:02:40.464Z,126.30
2019-03-22T06:03:40.445Z,120.40
2019-03-22T06:04:40.430Z,118.60
2019-03-22T06:05:40.420Z,120.40
2019-03-22T06:06:40.415Z,118.40
2019-03-22T06:07:40.402Z,109.60
2019-03-22T06:08:40.390Z,116.90
2019-03-22T06:09:40.407Z,117.00
2019-03-22T06:10:40.383Z,110.40
2019-03-22T06:11:40.389Z,98.60
2019-03-22T06:12:40.339Z,108.20
2019-03-22T06:13:40.336Z,111.40
2019-03-22T06:14:40.329Z,120.60
2019-03-22T06:15:40.309Z,112.50
2019-03-22T06:16:40.305Z,113.30
2019-03-22T06:17:51.282Z,95.30
2019-03-22T06:18:41.275Z,100.50
2019-03-22T06:19:40.267Z,112.50
2019-03-22T06:20:40.256Z,104.00
2019-03-22T06:21:40.256Z,98.40
2019-03-22T06:22:40.270Z,106.10
2019-03-22T06:23:40.220Z,109.50
2019-03-22T06:24:40.213Z,111.00
2019-03-22T06:25:40.204Z,121.40
2019-03-22T06:26:40.186Z,120.30
2019-03-22T06:27:40.198Z,114.00
2019-03-22T06:28:40.165Z,107.60
2019-03-22T06:29:40.161Z,108.20
2019-03-22T06:30:40.146Z,112.90
2019-03-22T06:31:40.138Z,95.30
2019-03-22T06:32:40.119Z,96.50
2019-03-22T06:33:40.144Z,93.80
2019-03-22T06:34:40.101Z,98.50
2019-03-22T06:35:40.094Z,106.00
2019-03-22T06:36:40.080Z,107.10
2019-03-22T06:37:40.063Z,101.80
2019-03-22T06:38:40.057Z,104.40
2019-03-22T06:39:40.051Z,110.90
2019-03-22T06:40:40.030Z,108.60
2019-03-22T06:41:40.024Z,111.10
2019-03-22T06:42:40.009Z,105.50
2019-03-22T06:43:40.009Z,106.70
2019-03-22T06:44:39.997Z,108.70
2019-03-22T06:45:39.988Z,106.90
2019-03-22T06:46:39.968Z,111.70
2019-03-22T06:47:39.955Z,104.30
2019-03-22T06:48:39.950Z,105.70
2019-03-22T06:49:39.971Z,106.70
2019-03-22T06:50:39.929Z,105.40
2019-03-22T06:51:39.912Z,106.00
2019-03-22T06:52:39.908Z,112.20
2019-03-22T06:53:39.893Z,107.50
2019-03-22T06:54:39.885Z,107.40
2019-03-22T06:55:39.876Z,105.70
2019-03-22T06:56:39.857Z,102.90
2019-03-22T06:57:39.845Z,102.20
2019-03-22T06:58:39.848Z,101.80
2019-03-22T06:59:39.834Z,101.50
2019-03-22T07:00:39.840Z,99.90
2019-03-22T07:01:39.808Z,99.60
2019-03-22T07:02:39.796Z,98.50
2019-03-22T07:03:39.786Z,96.40
2019-03-22T07:04:39.776Z,96.10
2019-03-22T07:05:39.761Z,92.60
2019-03-22T07:06:39.752Z,95.40
2019-03-22T07:07:39.741Z,100.10
2019-03-22T07:08:39.733Z,102.10
2019-03-22T07:09:39.721Z,102.30
2019-03-22T07:10:39.712Z,89.50
2019-03-22T07:11:41.817Z,87.60
2019-03-22T07:12:39.690Z,93.00
2019-03-22T07:13:39.687Z,89.20
2019-03-22T07:14:39.669Z,96.70
2019-03-22T07:15:39.655Z,90.70
2019-03-22T07:16:39.654Z,96.70
2019-03-22T07:17:39.641Z,94.50
2019-03-22T07:18:39.624Z,87.00
2019-03-22T07:19:39.608Z,85.80
2019-03-22T07:20:39.596Z,97.00
2019-03-22T07:21:39.616Z,93.80
2019-03-22T07:22:39.581Z,87.50
2019-03-22T07:23:39.572Z,84.40
2019-03-22T07:24:39.558Z,92.90
2019-03-22T07:25:39.544Z,91.90
2019-03-22T07:26:39.539Z,88.60
2019-03-22T07:27:39.538Z,92.00
2019-03-22T07:28:39.518Z,86.90
2019-03-22T07:29:39.502Z,96.60
2019-03-22T07:30:39.490Z,82.00
2019-03-22T07:31:39.485Z,91.90
2019-03-22T07:32:39.486Z,88.80
2019-03-22T07:33:39.463Z,88.30
2019-03-22T07:34:39.472Z,87.40
2019-03-22T07:35:39.434Z,83.90
2019-03-22T07:36:39.426Z,83.20
2019-03-22T07:37:39.428Z,79.90
2019-03-22T07:38:39.402Z,85.30
2019-03-22T07:39:39.398Z,89.90
2019-03-22T07:40:39.394Z,88.30
2019-03-22T07:41:39.369Z,84.30
2019-03-22T07:42:39.382Z,87.00
2019-03-22T07:43:39.355Z,84.70
2019-03-22T07:44:39.349Z,87.60
2019-03-22T07:45:39.329Z,89.20
2019-03-22T07:46:39.321Z,85.50
2019-03-22T07:47:39.310Z,84.00
2019-03-22T07:48:39.295Z,84.10
2019-03-22T07:49:39.286Z,86.50
2019-03-22T07:50:39.279Z,78.20
2019-03-22T07:51:39.265Z,80.60
2019-03-22T07:52:39.249Z,78.30
2019-03-22T07:53:39.249Z,76.50
2019-03-22T07:54:39.342Z,80.60
2019-03-22T07:55:39.222Z,72.10
2019-03-22T07:56:39.207Z,74.80
2019-03-22T07:57:39.221Z,77.80
2019-03-22T07:58:39.185Z,78.70
2019-03-22T07:59:39.189Z,77.70
2019-03-22T08:00:39.168Z,78.40
2019-03-22T08:01:39.195Z,72.70
2019-03-22T08:02:39.145Z,78.00
2019-03-22T08:03:39.134Z,78.50
2019-03-22T08:04:39.122Z,77.40
2019-03-22T08:05:50.549Z,81.30
2019-03-22T08:06:40.126Z,75.20
2019-03-22T08:07:39.088Z,76.00
2019-03-22T08:08:39.080Z,73.10
2019-03-22T08:09:39.084Z,73.30
2019-03-22T08:10:39.082Z,83.30
2019-03-22T08:11:39.045Z,73.40
2019-03-22T08:12:39.031Z,77.80
2019-03-22T08:13:39.014Z,76.70
2019-03-22T08:14:39.010Z,71.40
2019-03-22T08:15:39.136Z,74.60
2019-03-22T08:16:39.011Z,79.70
2019-03-22T08:17:38.988Z,76.10
2019-03-22T08:18:38.965Z,79.70
2019-03-22T08:19:38.951Z,74.20
2019-03-22T08:20:39.103Z,79.40
2019-03-22T08:21:38.934Z,76.80
2019-03-22T08:22:38.929Z,77.90
2019-03-22T08:23:38.903Z,79.10
2019-03-22T08:24:38.892Z,79.80
2019-03-22T08:25:38.914Z,73.20
2019-03-22T08:26:38.908Z,73.30
2019-03-22T08:27:38.853Z,71.10
2019-03-22T08:28:38.874Z,72.10
2019-03-22T08:29:38.833Z,70.70
2019-03-22T08:30:43.298Z,72.30
2019-03-22T08:31:38.814Z,74.10
2019-03-22T08:32:38.803Z,74.80
2019-03-22T08:33:38.845Z,74.80
2019-03-22T08:34:38.776Z,76.70
2019-03-22T08:35:38.774Z,76.20
2019-03-22T08:36:38.789Z,76.60
2019-03-22T08:37:38.790Z,76.70
2019-03-22T08:38:38.731Z,80.10
2019-03-22T08:39:38.726Z,78.40
2019-03-22T08:40:38.751Z,75.20
2019-03-22T08:41:38.691Z,76.10
2019-03-22T08:42:38.712Z,76.10
2019-03-22T08:43:38.721Z,74.40
2019-03-22T08:44:38.674Z,68.20
2019-03-22T08:45:38.730Z,70.30
2019-03-22T08:46:38.659Z,69.50
2019-03-22T08:47:38.671Z,72.80
2019-03-22T08:48:38.630Z,73.40
2019-03-22T08:49:38.752Z,71.50
2019-03-22T08:50:38.613Z,73.40
2019-03-22T08:51:38.621Z,71.90
2019-03-22T08:52:38.605Z,73.70
2019-03-22T08:53:38.580Z,73.60
2019-03-22T08:54:38.617Z,72.20
2019-03-22T08:55:38.540Z,76.20
2019-03-22T08:56:38.526Z,78.10
2019-03-22T08:57:38.518Z,77.30
2019-03-22T08:58:38.498Z,80.50
2019-03-22T08:59:38.519Z,78.80
2019-03-22T09:00:39.818Z,77.90
2019-03-22T09:01:38.465Z,76.40
2019-03-22T09:02:38.473Z,79.10
2019-03-22T09:03:38.445Z,79.10
2019-03-22T09:04:38.439Z,81.40
2019-03-22T09:05:38.458Z,78.20
2019-03-22T09:06:38.415Z,76.00
2019-03-22T09:07:38.404Z,78.20
2019-03-22T09:08:38.393Z,75.10
2019-03-22T09:09:41.635Z,76.90
2019-03-22T09:10:38.443Z,74.20
2019-03-22T09:11:38.397Z,85.10
2019-03-22T09:12:38.347Z,76.70
2019-03-22T09:13:38.327Z,76.40
2019-03-22T09:14:38.326Z,73.40
2019-03-22T09:15:41.942Z,75.10
2019-03-22T09:16:38.305Z,78.20
2019-03-22T09:17:38.283Z,77.10
2019-03-22T09:18:38.270Z,83.90
2019-03-22T09:19:38.292Z,84.00
2019-03-22T09:20:38.263Z,85.80
2019-03-22T09:21:38.260Z,85.20
2019-03-22T09:22:38.235Z,84.10
2019-03-22T09:23:38.237Z,82.40
2019-03-22T09:24:39.268Z,87.70
2019-03-22T09:25:38.207Z,86.90
2019-03-22T09:26:47.651Z,81.50
2019-03-22T09:27:39.189Z,78.40
2019-03-22T09:28:38.190Z,87.40
2019-03-22T09:29:38.185Z,83.40
2019-03-22T09:30:38.176Z,80.70
2019-03-22T09:31:38.178Z,81.50
2019-03-22T09:32:38.221Z,75.30
2019-03-22T09:33:38.102Z,75.20
2019-03-22T09:34:38.129Z,81.80
2019-03-22T09:35:38.090Z,82.10
2019-03-22T09:36:38.110Z,84.90
2019-03-22T09:37:38.084Z,74.20
2019-03-22T09:38:38.096Z,79.30
2019-03-22T09:39:38.087Z,77.30
2019-03-22T09:40:38.027Z,78.60
2019-03-22T09:41:38.051Z,70.90
2019-03-22T09:42:38.021Z,72.40
2019-03-22T09:43:37.985Z,73.30
2019-03-22T09:44:43.137Z,84.10
2019-03-22T09:45:38.965Z,83.90
2019-03-22T09:46:38.011Z,75.00
2019-03-22T09:47:37.972Z,75.20
2019-03-22T09:48:37.936Z,71.50
2019-03-22T09:49:37.921Z,67.50
2019-03-22T09:50:37.910Z,65.70
2019-03-22T09:51:37.923Z,68.20
2019-03-22T09:52:38.017Z,64.30
2019-03-22T09:53:37.917Z,66.70
2019-03-22T09:54:37.904Z,67.60
2019-03-22T09:55:37.876Z,66.80
2019-03-22T09:56:47.043Z,65.60
2019-03-22T09:57:38.824Z,67.70
2019-03-22T09:58:37.882Z,64.90
2019-03-22T09:59:37.807Z,63.90
2019-03-22T10:00:37.845Z,71.70
2019-03-22T10:01:37.785Z,69.30
2019-03-22T10:02:37.775Z,66.40
2019-03-22T10:03:37.798Z,67.70
2019-03-22T10:04:37.773Z,70.80
2019-03-22T10:05:37.736Z,70.00
2019-03-22T10:06:37.735Z,71.20
2019-03-22T10:07:37.754Z,69.60
2019-03-22T10:08:37.726Z,69.20
2019-03-22T10:09:37.703Z,71.70
2019-03-22T10:10:37.689Z,70.90
2019-03-22T10:11:37.689Z,72.10
2019-03-22T10:12:37.659Z,70.10
2019-03-22T10:13:37.649Z,71.60
2019-03-22T10:14:37.647Z,66.20
2019-03-22T10:15:37.649Z,70.00
2019-03-22T10:16:37.613Z,68.50
2019-03-22T10:17:37.686Z,67.30
2019-03-22T10:18:37.596Z,72.50
2019-03-22T10:19:37.618Z,72.90
2019-03-22T10:20:37.603Z,68.50
2019-03-22T10:21:37.569Z,76.70
2019-03-22T10:22:37.555Z,70.40
2019-03-22T10:23:37.609Z,72.30
2019-03-22T10:24:37.607Z,73.30
2019-03-22T10:25:37.510Z,71.60
2019-03-22T10:26:37.506Z,85.00
2019-03-22T10:27:37.753Z,83.10
2019-03-22T10:28:37.523Z,85.10
2019-03-22T10:29:37.479Z,78.50
2019-03-22T10:30:37.531Z,82.70
2019-03-22T10:31:37.954Z,74.00
2019-03-22T10:32:37.448Z,84.80
2019-03-22T10:33:37.480Z,90.10
2019-03-22T10:34:39.736Z,81.30
2019-03-22T10:35:37.405Z,84.40
2019-03-22T10:36:37.453Z,85.90
2019-03-22T10:37:37.387Z,88.10
2019-03-22T10:38:37.378Z,90.80
2019-03-22T10:39:37.355Z,85.90
2019-03-22T10:40:37.361Z,90.90
2019-03-22T10:41:37.329Z,95.90
2019-03-22T10:42:37.327Z,93.40
2019-03-22T10:43:37.311Z,91.70
2019-03-22T10:44:39.397Z,88.90
2019-03-22T10:45:37.293Z,90.40
2019-03-22T10:46:37.271Z,86.70
2019-03-22T10:47:37.276Z,89.60
2019-03-22T10:48:37.256Z,87.40
2019-03-22T10:49:37.291Z,85.50
2019-03-22T10:50:37.375Z,80.20
2019-03-22T10:51:37.237Z,83.30
2019-03-22T10:52:37.210Z,88.90
2019-03-22T10:53:37.230Z,93.10
2019-03-22T10:54:37.187Z,93.50
2019-03-22T10:55:37.174Z,99.50
2019-03-22T10:56:37.170Z,97.70
2019-03-22T10:57:40.054Z,98.80
2019-03-22T10:58:37.143Z,94.10
2019-03-22T10:59:37.134Z,94.30
2019-03-22T11:00:37.128Z,95.40
2019-03-22T11:01:48.244Z,89.70
2019-03-22T11:02:38.097Z,88.60
2019-03-22T11:03:37.257Z,92.90
2019-03-22T11:04:37.073Z,91.20
2019-03-22T11:05:37.080Z,89.40
2019-03-22T11:06:37.063Z,96.80
2019-03-22T11:07:37.055Z,87.60
2019-03-22T11:08:37.032Z,84.50
2019-03-22T11:09:37.021Z,81.20
2019-03-22T11:10:37.004Z,82.60
2019-03-22T11:11:37.005Z,79.10
2019-03-22T11:12:37.011Z,76.60
2019-03-22T11:13:36.978Z,71.10
2019-03-22T11:14:36.968Z,70.50
2019-03-22T12:04:35.490Z,92.40
2019-03-22T12:05:40.346Z,94.50
2019-03-22T12:06:36.451Z,86.50
2019-03-22T12:07:35.432Z,83.90
2019-03-22T12:08:35.459Z,79.70
2019-03-22T12:09:35.582Z,82.00
2019-03-22T12:10:35.444Z,78.50
2019-03-22T12:11:35.390Z,77.40
2019-03-22T12:12:35.383Z,76.40
2019-03-22T12:13:35.371Z,78.90
2019-03-22T12:14:35.376Z,81.90
2019-03-22T12:15:35.346Z,75.20
2019-03-22T12:16:35.335Z,76.00
2019-03-22T12:17:35.328Z,77.30
2019-03-22T12:18:35.325Z,76.40
2019-03-22T12:19:35.322Z,83.60
2019-03-22T12:20:35.294Z,85.80
2019-03-22T12:21:35.288Z,74.60
2019-03-22T12:22:35.294Z,76.80
2019-03-22T12:23:35.271Z,74.70
2019-03-22T12:24:35.251Z,80.00
2019-03-22T12:25:35.241Z,80.10
2019-03-22T12:26:35.225Z,82.80
2019-03-22T12:27:36.761Z,74.70
2019-03-22T12:28:35.236Z,79.10
2019-03-22T12:29:35.200Z,83.90
2019-03-22T12:30:35.188Z,77.60
2019-03-22T12:31:35.174Z,82.50
2019-03-22T12:32:35.166Z,79.50
2019-03-22T12:33:35.156Z,83.10
2019-03-22T12:34:35.247Z,80.60
2019-03-22T12:35:35.154Z,83.40
2019-03-22T12:36:35.128Z,83.10
2019-03-22T12:37:35.114Z,80.70
2019-03-22T12:38:35.099Z,75.00
2019-03-22T12:39:35.092Z,75.70
2019-03-22T12:40:35.096Z,75.20
2019-03-22T12:41:35.074Z,76.20
2019-03-22T12:42:35.064Z,74.40
2019-03-22T12:43:35.058Z,69.20
2019-03-22T12:44:35.040Z,71.70
2019-03-22T12:45:35.063Z,76.00
2019-03-22T12:46:35.018Z,75.70
2019-03-22T12:47:35.005Z,74.10
2019-03-22T12:48:34.994Z,73.30
2019-03-22T12:49:34.983Z,74.50
2019-03-22T12:50:34.988Z,72.30
2019-03-22T12:51:34.958Z,72.40
2019-03-22T12:52:34.944Z,70.10
2019-03-22T12:53:34.942Z,71.90
2019-03-22T12:54:34.926Z,70.80
2019-03-22T12:55:34.912Z,78.90
2019-03-22T12:56:34.920Z,66.00
2019-03-22T12:57:34.898Z,70.50
2019-03-22T12:58:34.883Z,68.50
2019-03-22T12:59:34.877Z,69.60
2019-03-22T13:00:34.853Z,71.90
2019-03-22T13:01:34.851Z,69.20
2019-03-22T13:02:42.054Z,68.80
2019-03-22T13:03:35.819Z,69.50
2019-03-22T13:04:34.807Z,71.50
2019-03-22T13:05:34.796Z,75.10
2019-03-22T13:06:34.824Z,72.50
2019-03-22T13:07:34.782Z,69.50
2019-03-22T13:08:34.768Z,75.60
2019-03-22T13:09:34.760Z,71.10
2019-03-22T13:10:34.745Z,69.60
2019-03-22T13:11:34.734Z,72.20
2019-03-22T13:12:34.729Z,65.30
2019-03-22T13:13:34.721Z,74.20
2019-03-22T13:14:34.697Z,69.80
2019-03-22T13:15:34.688Z,73.10
2019-03-22T13:16:34.677Z,71.20
2019-03-22T13:17:34.675Z,74.70
2019-03-22T13:18:34.670Z,77.70
2019-03-22T13:19:34.650Z,68.50
2019-03-22T13:20:34.637Z,72.60
2019-03-22T13:21:34.630Z,69.70
2019-03-22T13:22:34.616Z,67.90
2019-03-22T13:23:34.611Z,66.30
2019-03-22T13:24:34.605Z,72.00
2019-03-22T13:25:34.580Z,69.90
2019-03-22T13:26:34.576Z,68.80
2019-03-22T13:27:34.560Z,71.00
2019-03-22T13:28:34.619Z,73.30
2019-03-22T13:29:34.537Z,69.30
2019-03-22T13:30:34.542Z,68.90